createdAt,value
2023-04-04T00:00:44.172Z,99510.75
2023-04-04T00:06:11.156Z,99508.00
2023-04-04T00:11:36.159Z,99501.13
2023-04-04T00:17:00.152Z,99499.41
2023-04-04T00:22:28.253Z,99503.72
2023-04-04T00:28:00.136Z,99496.69
2023-04-04T00:33:25.259Z,99497.69
2023-04-04T00:38:53.179Z,99490.69
2023-04-04T00:44:18.198Z,99481.94
2023-04-04T00:49:44.214Z,99487.22
2023-04-04T00:55:12.167Z,99487.38
2023-04-04T01:00:37.305Z,99473.78
2023-04-04T01:06:02.167Z,99472.09
2023-04-04T01:11:29.168Z,99476.63
2023-04-04T01:16:55.244Z,99469.59
2023-04-04T01:22:22.267Z,99473.19
2023-04-04T01:27:56.193Z,99460.59
2023-04-04T01:33:30.201Z,99463.88
2023-04-04T01:39:09.183Z,99462.38
2023-04-04T01:44:37.177Z,99464.63
2023-04-04T01:50:03.183Z,99459.31
2023-04-04T01:55:28.202Z,99462.16
2023-04-04T02:00:59.219Z,99455.34
2023-04-04T02:06:24.201Z,99458.00
2023-04-04T02:11:50.213Z,99454.72
2023-04-04T02:17:18.223Z,99455.78
2023-04-04T02:22:43.396Z,99451.28
2023-04-04T02:28:14.208Z,99454.97
2023-04-04T02:33:42.222Z,99447.97
2023-04-04T02:39:11.206Z,99451.00
2023-04-04T02:44:36.198Z,99439.16
2023-04-04T02:50:08.232Z,99433.97
2023-04-04T02:55:33.426Z,99438.63
2023-04-04T03:00:58.212Z,99433.59
2023-04-04T03:06:30.247Z,99428.59
2023-04-04T03:11:54.404Z,99421.69
2023-04-04T03:17:22.209Z,99416.69
2023-04-04T03:22:49.247Z,99407.88
2023-04-04T03:28:26.240Z,99409.59
2023-04-04T03:33:53.254Z,99409.81
2023-04-04T03:39:20.249Z,99410.69
2023-04-04T03:44:46.281Z,99400.28
2023-04-04T03:50:19.208Z,99402.94
2023-04-04T03:55:51.320Z,99402.00
2023-04-04T04:01:16.244Z,99397.66
2023-04-04T04:06:41.239Z,99390.81
2023-04-04T04:12:08.276Z,99392.53
2023-04-04T04:17:34.268Z,99401.47
2023-04-04T04:23:01.215Z,99400.69
2023-04-04T04:28:37.213Z,99399.88
2023-04-04T04:34:06.267Z,99401.88
2023-04-04T04:39:34.269Z,99403.47
2023-04-04T04:45:32.239Z,99394.72
2023-04-04T04:51:00.277Z,99401.75
2023-04-04T04:56:35.307Z,99404.63
2023-04-04T05:02:05.293Z,99402.75
2023-04-04T05:07:35.272Z,99417.66
2023-04-04T05:13:01.336Z,99404.75
2023-04-04T05:18:36.292Z,99423.16
2023-04-04T05:24:02.253Z,99415.00
2023-04-04T05:29:29.490Z,99425.44
2023-04-04T05:34:57.266Z,99432.41
2023-04-04T05:40:26.315Z,99434.84
2023-04-04T05:45:59.509Z,99437.28
2023-04-04T05:51:34.287Z,99437.09
2023-04-04T05:57:03.295Z,99432.47
2023-04-04T06:02:40.398Z,99439.59
2023-04-04T06:08:11.300Z,99440.13
2023-04-04T06:13:36.253Z,99449.06
2023-04-04T06:19:06.307Z,99442.34
2023-04-04T06:24:36.213Z,99450.16
2023-04-04T06:30:03.295Z,99447.22
2023-04-04T06:35:28.278Z,99459.28
2023-04-04T06:40:56.301Z,99465.22
2023-04-04T06:46:21.512Z,99457.81
2023-04-04T06:51:46.311Z,99455.72
2023-04-04T06:57:13.277Z,99448.41
2023-04-04T07:02:38.411Z,99449.78
2023-04-04T07:08:03.303Z,99446.53
2023-04-04T07:13:36.159Z,99451.31
2023-04-04T07:19:10.517Z,99456.13
2023-04-04T07:24:35.323Z,99450.81
2023-04-04T07:30:02.506Z,99453.53
2023-04-04T07:35:30.240Z,99460.38
2023-04-04T07:40:54.316Z,99451.94
2023-04-04T07:46:23.645Z,99452.75
2023-04-04T07:51:51.319Z,99449.94
2023-04-04T07:57:24.484Z,99449.50
2023-04-04T08:02:52.421Z,99450.22
2023-04-04T08:08:17.308Z,99447.91
2023-04-04T08:13:41.343Z,99441.22
2023-04-04T08:19:10.331Z,99434.94
2023-04-04T08:24:35.340Z,99439.59
2023-04-04T08:30:00.353Z,99434.00
2023-04-04T08:35:34.590Z,99442.78
2023-04-04T08:41:02.394Z,99432.44
2023-04-04T08:46:38.483Z,99424.97
2023-04-04T08:52:08.344Z,99432.81
2023-04-04T08:57:33.335Z,99432.22
2023-04-04T09:03:07.694Z,99433.66
2023-04-04T09:08:36.350Z,99430.81
2023-04-04T09:14:04.366Z,99439.00
2023-04-04T09:19:28.363Z,99438.91
2023-04-04T09:24:58.397Z,99430.56
2023-04-04T09:30:25.396Z,99435.63
2023-04-04T09:35:54.377Z,99429.50
2023-04-04T09:41:22.339Z,99437.22
2023-04-04T09:46:48.365Z,99438.22
2023-04-04T09:52:13.367Z,99427.41
2023-04-04T09:57:44.354Z,99437.78
2023-04-04T10:03:08.366Z,99441.50
2023-04-04T10:08:34.411Z,99435.59
2023-04-04T10:14:01.370Z,99431.84
2023-04-04T10:19:27.522Z,99430.72
2023-04-04T10:24:51.370Z,99425.25
2023-04-04T10:30:20.387Z,99420.53
2023-04-04T10:35:46.472Z,99415.16
2023-04-04T10:41:14.408Z,99398.72
2023-04-04T10:46:42.525Z,99407.41
2023-04-04T10:52:08.454Z,99405.31
2023-04-04T10:57:34.566Z,99405.88
2023-04-04T11:03:05.472Z,99397.97
2023-04-04T11:08:32.410Z,99393.09
2023-04-04T11:14:10.946Z,99386.00
2023-04-04T11:19:40.461Z,99387.88
2023-04-04T11:25:09.489Z,99386.84
2023-04-04T11:30:35.396Z,99396.44
2023-04-04T11:36:08.624Z,99378.78
2023-04-04T11:41:33.414Z,99387.38
2023-04-04T11:47:04.569Z,99375.19
2023-04-04T11:52:33.465Z,99360.94
2023-04-04T11:57:59.388Z,99360.09
2023-04-04T12:03:25.549Z,99347.88
2023-04-04T12:08:53.463Z,99342.97
2023-04-04T12:14:19.437Z,99346.47
2023-04-04T12:19:47.470Z,99340.97
2023-04-04T12:25:22.474Z,99339.88
2023-04-04T12:30:47.462Z,99332.63
2023-04-04T12:36:13.502Z,99325.84
2023-04-04T12:41:42.427Z,99318.94
2023-04-04T12:47:08.651Z,99324.53
2023-04-04T12:52:39.460Z,99324.16
2023-04-04T12:58:07.445Z,99325.41
2023-04-04T13:03:34.666Z,99311.50
2023-04-04T13:09:05.479Z,99299.56
2023-04-04T13:14:33.454Z,99299.59
2023-04-04T13:19:58.437Z,99294.34
2023-04-04T13:25:23.442Z,99293.28
2023-04-04T13:30:55.470Z,99290.59
2023-04-04T13:36:20.497Z,99279.19
2023-04-04T13:41:44.487Z,99271.81
2023-04-04T13:47:12.486Z,99272.53
2023-04-04T13:52:36.472Z,99262.19
2023-04-04T13:58:02.479Z,99261.22
2023-04-04T14:03:29.567Z,99261.16
2023-04-04T14:08:55.555Z,99260.09
2023-04-04T14:14:19.576Z,99261.47
2023-04-04T14:19:48.517Z,99255.81
2023-04-04T14:25:12.461Z,99254.16
2023-04-04T14:30:38.492Z,99252.56
2023-04-04T14:36:05.476Z,99258.28
2023-04-04T14:41:30.496Z,99246.22
2023-04-04T14:46:55.661Z,99242.94
2023-04-04T14:52:23.536Z,99236.00
2023-04-04T14:58:01.113Z,99227.06
2023-04-04T15:03:28.502Z,99219.06
2023-04-04T15:08:57.833Z,99216.97
2023-04-04T15:14:24.521Z,99213.78
2023-04-04T15:19:50.537Z,99212.25
2023-04-04T15:25:19.529Z,99208.41
2023-04-04T15:30:44.497Z,99204.38
2023-04-04T15:36:09.519Z,99209.38
2023-04-04T15:41:36.546Z,99203.69
2023-04-04T15:47:01.523Z,99205.34
2023-04-04T15:52:25.509Z,99201.97
2023-04-04T15:57:53.524Z,99208.34
2023-04-04T16:03:18.624Z,99197.88
2023-04-04T16:08:43.644Z,99198.84
2023-04-04T16:14:12.545Z,99194.41
2023-04-04T16:19:37.625Z,99198.56
2023-04-04T16:25:01.543Z,99183.00
2023-04-04T16:30:35.526Z,99183.34
2023-04-04T16:36:01.537Z,99173.56
2023-04-04T16:41:26.588Z,99164.47
2023-04-04T16:47:00.679Z,99159.00
2023-04-04T16:52:26.611Z,99167.28
2023-04-04T16:57:53.602Z,99166.31
2023-04-04T17:03:21.538Z,99163.25
2023-04-04T17:08:47.532Z,99163.25
2023-04-04T17:14:12.582Z,99165.16
2023-04-04T17:19:41.619Z,99164.81
2023-04-04T17:25:06.581Z,99162.81
2023-04-04T17:30:37.708Z,99159.13
2023-04-04T17:36:05.546Z,99159.94
2023-04-04T17:41:30.594Z,99151.16
2023-04-04T17:46:56.596Z,99154.59
2023-04-04T17:52:30.783Z,99150.28
2023-04-04T17:57:55.602Z,99157.25
2023-04-04T18:03:21.884Z,99156.03
2023-04-04T18:08:49.636Z,99162.19
2023-04-04T18:14:13.593Z,99155.09
2023-04-04T18:19:39.137Z,99168.63
2023-04-04T18:25:07.604Z,99164.25
2023-04-04T18:30:33.803Z,99161.06
2023-04-04T18:35:57.607Z,99161.81
2023-04-04T18:41:25.608Z,99162.38
2023-04-04T18:46:50.671Z,99161.88
2023-04-04T18:52:21.624Z,99170.28
2023-04-04T18:57:50.597Z,99170.84
2023-04-04T19:03:16.768Z,99172.72
2023-04-04T19:08:43.833Z,99169.34
2023-04-04T19:14:11.605Z,99167.97
2023-04-04T19:19:43.635Z,99164.91
2023-04-04T19:25:08.613Z,99173.97
2023-04-04T19:30:59.670Z,99163.53
2023-04-04T19:36:24.645Z,99156.78
2023-04-04T19:41:50.651Z,99156.50
2023-04-04T19:47:19.620Z,99162.25
2023-04-04T19:52:43.614Z,99164.34
2023-04-04T19:58:08.641Z,99165.78
2023-04-04T20:03:46.663Z,99169.69
2023-04-04T20:09:16.813Z,99161.38
2023-04-04T20:14:40.676Z,99170.69
2023-04-04T20:20:14.618Z,99167.75
2023-04-04T20:25:51.631Z,99157.44
2023-04-04T20:31:17.653Z,99161.22
2023-04-04T20:36:50.654Z,99165.91
2023-04-04T20:42:14.656Z,99166.28
2023-04-04T20:47:50.651Z,99175.19
2023-04-04T20:53:18.700Z,99175.41
2023-04-04T20:58:43.668Z,99172.16
2023-04-04T21:04:08.681Z,99176.97
2023-04-04T21:09:36.676Z,99170.84
2023-04-04T21:15:01.674Z,99176.22
2023-04-04T21:21:12.681Z,99171.22
2023-04-04T21:26:44.713Z,99171.38
2023-04-04T21:32:16.668Z,99170.91
2023-04-04T21:37:42.661Z,99170.44
2023-04-04T21:43:09.905Z,99166.47
2023-04-04T21:48:34.681Z,99160.59
2023-04-04T21:53:59.713Z,99161.69
2023-04-04T21:59:27.712Z,99156.59
2023-04-04T22:04:52.762Z,99161.44
2023-04-04T22:10:19.701Z,99161.56
2023-04-04T22:15:49.973Z,99154.78
2023-04-04T22:21:14.698Z,99149.66
2023-04-04T22:26:39.747Z,99149.94
2023-04-04T22:32:07.799Z,99142.44
2023-04-04T22:37:34.686Z,99134.66
2023-04-04T22:42:59.713Z,99126.00
2023-04-04T22:48:29.698Z,99134.09
2023-04-04T22:53:54.727Z,99135.09
2023-04-04T22:59:19.753Z,99127.28
2023-04-04T23:04:47.717Z,99108.91
2023-04-04T23:10:12.940Z,99111.63
2023-04-04T23:15:39.730Z,99121.59
2023-04-04T23:21:06.676Z,99113.00
2023-04-04T23:26:32.845Z,99113.31
2023-04-04T23:31:56.724Z,99103.72
2023-04-04T23:37:24.722Z,99109.16
2023-04-04T23:42:50.753Z,99103.34
2023-04-04T23:48:16.743Z,99102.88
2023-04-04T23:54:12.842Z,99101.50
2023-04-04T23:59:41.785Z,99096.44
